createdAt,value
2023-04-20T00:00:11.743Z,3.70
2023-04-20T00:03:21.388Z,4.93
2023-04-20T00:06:25.448Z,3.57
2023-04-20T00:09:28.294Z,3.23
2023-04-20T00:12:30.530Z,3.03
2023-04-20T00:15:33.073Z,3.17
2023-04-20T00:18:34.894Z,2.87
2023-04-20T00:21:36.757Z,5.63
2023-04-20T00:24:38.565Z,8.40
2023-04-20T00:27:40.399Z,2.67
2023-04-20T00:30:42.225Z,1.80
2023-04-20T00:33:45.036Z,3.10
2023-04-20T00:36:46.900Z,3.77
2023-04-20T00:43:20.348Z,3.27
2023-04-20T00:46:22.263Z,3.80
2023-04-20T00:49:29.851Z,3.30
2023-04-20T00:52:32.495Z,3.37
2023-04-20T00:55:36.466Z,9.07
2023-04-20T00:58:38.957Z,4.90
2023-04-20T01:01:41.367Z,6.50
2023-04-20T01:04:43.097Z,2.00
2023-04-20T01:07:44.774Z,3.83
2023-04-20T01:10:46.486Z,2.00
2023-04-20T01:13:49.140Z,4.40
2023-04-20T01:16:51.979Z,6.47
2023-04-20T01:19:53.677Z,5.60
2023-04-20T01:22:55.878Z,5.87
2023-04-20T01:25:57.622Z,3.40
2023-04-20T01:28:59.292Z,7.07
2023-04-20T01:32:01.090Z,3.43
2023-04-20T01:35:03.555Z,3.57
2023-04-20T01:38:05.264Z,2.57
2023-04-20T01:41:09.095Z,4.13
2023-04-20T01:44:10.820Z,4.13
2023-04-20T01:47:13.022Z,3.33
2023-04-20T01:50:15.600Z,3.27
2023-04-20T01:53:17.450Z,6.00
2023-04-20T01:56:21.736Z,5.47
2023-04-20T01:59:24.520Z,4.03
2023-04-20T02:02:26.386Z,5.93
2023-04-20T02:05:28.948Z,5.17
2023-04-20T02:08:34.796Z,3.73
2023-04-20T02:11:36.580Z,3.83
2023-04-20T02:14:40.961Z,2.73
2023-04-20T02:17:45.303Z,2.57
2023-04-20T02:20:47.148Z,4.47
2023-04-20T02:30:10.883Z,3.30
2023-04-20T02:33:12.787Z,6.43
2023-04-20T02:36:14.500Z,5.43
2023-04-20T02:39:16.531Z,10.70
2023-04-20T02:42:18.408Z,3.87
2023-04-20T02:45:21.131Z,5.30
2023-04-20T02:48:22.997Z,6.20
2023-04-20T02:51:24.752Z,6.40
2023-04-20T02:54:27.788Z,4.50
2023-04-20T02:57:29.860Z,4.73
2023-04-20T03:00:32.296Z,4.57
2023-04-20T03:03:40.524Z,7.13
2023-04-20T03:06:45.978Z,4.40
2023-04-20T03:09:52.148Z,3.37
2023-04-20T03:13:16.029Z,3.40
2023-04-20T03:16:27.994Z,5.57
2023-04-20T03:19:31.173Z,3.87
2023-04-20T03:22:32.882Z,6.93
2023-04-20T03:25:36.882Z,3.97
2023-04-20T03:28:52.026Z,3.20
2023-04-20T03:31:57.569Z,3.17
2023-04-20T03:34:59.315Z,7.73
2023-04-20T03:38:01.498Z,2.33
2023-04-20T03:41:03.462Z,5.00
2023-04-20T03:44:05.288Z,4.20
2023-04-20T03:53:48.415Z,6.23
2023-04-20T03:56:50.512Z,6.90
2023-04-20T03:59:52.997Z,3.50
2023-04-20T04:02:57.861Z,6.10
2023-04-20T04:06:03.672Z,2.40
2023-04-20T04:09:07.079Z,3.57
2023-04-20T04:12:08.795Z,3.40
2023-04-20T04:15:12.002Z,5.90
2023-04-20T04:18:22.485Z,5.83
2023-04-20T04:21:25.221Z,4.07
2023-04-20T04:31:21.470Z,3.20
2023-04-20T04:34:24.059Z,5.50
2023-04-20T04:37:28.432Z,2.77
2023-04-20T04:40:33.579Z,8.40
2023-04-20T04:43:37.668Z,8.57
2023-04-20T04:57:03.299Z,5.53
2023-04-20T05:17:04.797Z,4.47
2023-04-20T05:40:52.200Z,5.17
2023-04-20T05:54:16.427Z,5.47
2023-04-20T06:11:31.468Z,7.33
2023-04-20T06:21:43.496Z,5.73
2023-04-20T06:28:34.116Z,3.70
2023-04-20T06:31:39.579Z,5.83
2023-04-20T06:35:00.537Z,6.40
2023-04-20T06:38:02.935Z,3.73
2023-04-20T06:41:16.851Z,2.97
2023-04-20T06:51:29.135Z,4.27
2023-04-20T06:54:31.334Z,4.27
2023-04-20T07:01:06.676Z,5.70
2023-04-20T07:14:26.832Z,4.73
2023-04-20T07:17:33.643Z,4.90
2023-04-20T07:24:13.229Z,6.03
2023-04-20T07:27:15.699Z,8.17
2023-04-20T07:30:17.692Z,13.20
2023-04-20T07:33:26.659Z,6.03
2023-04-20T07:36:29.672Z,5.47
2023-04-20T07:43:06.751Z,4.67
2023-04-20T07:46:13.506Z,6.47
2023-04-20T07:49:19.262Z,7.13
2023-04-20T07:52:21.935Z,9.90
2023-04-20T07:58:49.221Z,5.93
2023-04-20T08:01:51.737Z,5.60
2023-04-20T08:11:48.710Z,5.83
2023-04-20T08:14:54.755Z,5.87
2023-04-20T08:18:00.161Z,6.40
2023-04-20T08:28:01.774Z,6.90
2023-04-20T08:41:04.554Z,5.70
2023-04-20T08:54:35.329Z,10.60
2023-04-20T08:57:42.605Z,9.20
2023-04-20T09:00:49.623Z,5.33
2023-04-20T09:03:52.262Z,6.60
2023-04-20T09:07:02.862Z,6.97
2023-04-20T09:13:36.463Z,7.87
2023-04-20T09:20:19.947Z,4.40
2023-04-20T09:26:44.703Z,9.70
2023-04-20T09:30:10.598Z,9.23
2023-04-20T09:33:16.616Z,5.97
2023-04-20T09:36:28.385Z,8.87
2023-04-20T09:39:36.346Z,10.53
2023-04-20T09:42:43.712Z,6.53
2023-04-20T09:45:46.354Z,6.20
2023-04-20T09:48:54.311Z,6.60
2023-04-20T09:52:19.336Z,7.07
2023-04-20T09:58:35.335Z,7.57
2023-04-20T10:01:41.531Z,7.20
2023-04-20T10:05:01.170Z,5.93
2023-04-20T10:25:23.654Z,6.17
2023-04-20T10:31:45.879Z,6.73
2023-04-20T10:34:55.389Z,9.10
2023-04-20T10:37:58.195Z,8.03
2023-04-20T10:41:11.274Z,7.33
2023-04-20T10:44:13.506Z,6.37
2023-04-20T10:47:20.053Z,6.13
2023-04-20T10:50:27.998Z,7.00
2023-04-20T10:53:32.893Z,7.97
2023-04-20T10:56:51.649Z,8.03
2023-04-20T11:00:02.512Z,9.07
2023-04-20T11:03:11.618Z,4.60
2023-04-20T11:06:19.878Z,6.00
2023-04-20T11:09:28.533Z,6.40
2023-04-20T11:12:42.555Z,6.07
2023-04-20T11:15:44.760Z,7.40
2023-04-20T11:18:50.703Z,6.40
2023-04-20T11:21:53.430Z,6.60
2023-04-20T11:25:06.207Z,4.53
2023-04-20T11:28:11.441Z,7.47
2023-04-20T11:31:20.063Z,6.70
2023-04-20T11:34:34.211Z,4.80
2023-04-20T11:38:00.047Z,7.37
2023-04-20T11:44:28.485Z,7.50
2023-04-20T11:47:35.457Z,5.53
2023-04-20T11:50:44.757Z,6.57
2023-04-20T11:53:53.738Z,6.87
2023-04-20T12:00:26.328Z,4.80
2023-04-20T12:03:30.184Z,5.07
2023-04-20T12:06:34.754Z,5.70
2023-04-20T12:09:49.359Z,8.03
2023-04-20T12:12:51.689Z,6.60
2023-04-20T12:16:02.185Z,6.77
2023-04-20T12:19:17.691Z,7.30
2023-04-20T12:22:20.907Z,6.20
2023-04-20T12:35:56.536Z,6.23
2023-04-20T12:39:00.652Z,7.83
2023-04-20T12:42:09.420Z,6.50
2023-04-20T12:45:20.726Z,5.30
2023-04-20T12:48:28.862Z,6.17
2023-04-20T12:51:32.130Z,7.63
2023-04-20T12:54:38.755Z,5.70
2023-04-20T12:57:40.804Z,9.77
2023-04-20T13:00:50.328Z,5.90
2023-04-20T13:03:59.483Z,6.23
2023-04-20T13:07:04.644Z,7.47
2023-04-20T13:10:18.680Z,6.03
2023-04-20T13:13:21.194Z,7.23
2023-04-20T13:16:34.973Z,6.37
2023-04-20T13:19:37.317Z,10.47
2023-04-20T13:22:47.043Z,6.23
2023-04-20T13:26:02.252Z,10.23
2023-04-20T13:29:04.094Z,8.00
2023-04-20T13:32:15.762Z,10.63
2023-04-20T13:35:22.551Z,8.47
2023-04-20T13:38:28.816Z,8.80
2023-04-20T13:41:31.048Z,9.57
2023-04-20T13:51:23.255Z,6.53
2023-04-20T13:54:33.803Z,5.93
2023-04-20T13:57:42.519Z,5.03
2023-04-20T14:00:51.248Z,5.33
2023-04-20T14:07:24.306Z,4.43
2023-04-20T14:13:50.152Z,3.90
2023-04-20T14:20:20.844Z,5.03
2023-04-20T14:26:44.807Z,12.27
2023-04-20T14:29:56.931Z,3.63
2023-04-20T14:33:00.939Z,5.83
2023-04-20T14:39:23.660Z,4.90
2023-04-20T14:42:25.809Z,6.23
2023-04-20T14:45:28.121Z,6.07
2023-04-20T14:48:30.517Z,4.97
2023-04-20T14:51:37.305Z,6.03
2023-04-20T14:54:39.484Z,6.40
2023-04-20T14:57:44.414Z,8.27
2023-04-20T15:04:20.634Z,5.17
2023-04-20T15:07:25.944Z,8.90
2023-04-20T15:10:30.707Z,4.50
2023-04-20T15:16:59.401Z,5.50
2023-04-20T15:20:04.581Z,5.33
2023-04-20T15:36:54.747Z,6.77
2023-04-20T15:43:29.300Z,6.63
2023-04-20T15:46:42.522Z,6.50
2023-04-20T15:57:14.991Z,7.40
2023-04-20T16:00:27.016Z,5.83
2023-04-20T16:03:39.119Z,5.27
2023-04-20T16:06:51.546Z,7.27
2023-04-20T16:10:01.264Z,6.13
2023-04-20T16:16:30.346Z,6.93
2023-04-20T16:19:38.565Z,4.87
2023-04-20T16:29:48.928Z,4.43
2023-04-20T16:32:58.524Z,5.13
2023-04-20T16:36:03.369Z,5.27
2023-04-20T16:42:11.340Z,4.87
2023-04-20T16:45:16.117Z,3.03
2023-04-20T16:48:17.841Z,3.37
2023-04-20T16:51:19.539Z,4.33
2023-04-20T16:54:21.615Z,8.70
2023-04-20T16:57:23.373Z,3.70
2023-04-20T17:00:25.723Z,4.10
2023-04-20T17:03:27.755Z,4.53
2023-04-20T17:06:29.622Z,3.93
2023-04-20T17:09:31.378Z,6.47
2023-04-20T17:12:33.080Z,6.30
2023-04-20T17:15:34.819Z,5.73
2023-04-20T17:18:39.777Z,7.87
2023-04-20T17:21:45.453Z,5.23
2023-04-20T17:24:47.329Z,6.17
2023-04-20T17:27:49.061Z,5.87
2023-04-20T17:30:50.769Z,5.97
2023-04-20T17:33:52.451Z,6.00
2023-04-20T17:36:54.136Z,4.67
2023-04-20T17:39:55.896Z,6.13
2023-04-20T17:42:57.706Z,5.80
2023-04-20T17:46:00.578Z,6.73
2023-04-20T17:49:02.414Z,6.00
2023-04-20T17:52:04.276Z,6.47
2023-04-20T17:55:06.590Z,6.00
2023-04-20T17:58:08.361Z,6.63
2023-04-20T18:01:10.218Z,8.60
2023-04-20T18:04:12.067Z,7.30
2023-04-20T18:07:16.679Z,9.70
2023-04-20T18:10:19.424Z,7.63
2023-04-20T18:13:21.250Z,7.70
2023-04-20T18:16:23.070Z,8.03
2023-04-20T18:19:24.945Z,9.20
2023-04-20T18:22:26.810Z,11.10
2023-04-20T18:25:28.532Z,9.10
2023-04-20T18:28:30.657Z,9.43
2023-04-20T18:31:32.496Z,9.73
2023-04-20T18:34:34.261Z,8.27
2023-04-20T18:37:36.192Z,7.37
2023-04-20T18:40:38.241Z,7.20
2023-04-20T18:43:39.932Z,9.13
2023-04-20T18:46:42.351Z,6.90
2023-04-20T18:49:44.355Z,8.53
2023-04-20T18:52:46.204Z,8.23
2023-04-20T18:55:47.960Z,10.37
2023-04-20T18:58:49.707Z,10.97
2023-04-20T19:01:52.300Z,9.53
2023-04-20T19:04:54.095Z,11.83
2023-04-20T19:07:55.750Z,10.13
2023-04-20T19:10:58.942Z,9.77
2023-04-20T19:14:00.889Z,11.47
2023-04-20T19:17:07.120Z,11.60
2023-04-20T19:20:09.685Z,9.73
2023-04-20T19:23:11.436Z,9.80
2023-04-20T19:26:13.184Z,12.77
2023-04-20T19:29:14.900Z,10.47
2023-04-20T19:32:16.810Z,10.23
2023-04-20T19:35:18.588Z,11.17
2023-04-20T19:38:21.443Z,11.47
2023-04-20T19:41:23.179Z,12.17
2023-04-20T19:44:24.864Z,10.67
2023-04-20T19:47:27.356Z,9.27
2023-04-20T19:50:29.140Z,10.57
2023-04-20T19:53:31.664Z,11.27
2023-04-20T19:56:34.501Z,11.33
2023-04-20T19:59:38.341Z,10.50
2023-04-20T20:02:40.430Z,11.93
2023-04-20T20:05:43.418Z,12.87
2023-04-20T20:08:45.706Z,12.50
2023-04-20T20:11:49.933Z,11.17
2023-04-20T20:14:51.644Z,10.80
2023-04-20T20:17:58.193Z,11.23
2023-04-20T20:21:00.119Z,16.63
2023-04-20T20:24:01.835Z,12.50
2023-04-20T20:27:04.523Z,14.77
2023-04-20T20:30:06.969Z,11.30
2023-04-20T20:33:08.692Z,11.93
2023-04-20T20:36:10.523Z,10.37
2023-04-20T20:39:13.701Z,13.60
2023-04-20T20:42:15.637Z,13.60
2023-04-20T20:45:18.024Z,14.63
2023-04-20T20:48:19.850Z,13.00
2023-04-20T20:51:21.562Z,14.70
2023-04-20T20:54:23.282Z,10.93
2023-04-20T20:57:24.969Z,13.73
2023-04-20T21:00:26.886Z,15.63
2023-04-20T21:03:29.261Z,14.37
2023-04-20T21:06:32.381Z,13.97
2023-04-20T21:09:34.187Z,15.60
2023-04-20T21:12:36.035Z,12.87
2023-04-20T21:15:37.759Z,15.13
2023-04-20T21:18:39.529Z,14.43
2023-04-20T21:21:41.213Z,14.80
2023-04-20T21:24:42.912Z,14.67
2023-04-20T21:27:44.588Z,16.63
2023-04-20T21:30:46.313Z,14.93
2023-04-20T21:33:48.054Z,17.20
2023-04-20T21:36:49.933Z,12.53
2023-04-20T21:39:51.742Z,13.67
2023-04-20T21:42:53.436Z,17.70
2023-04-20T21:45:55.144Z,14.63
2023-04-20T21:48:57.023Z,12.37
2023-04-20T21:51:58.705Z,14.47
2023-04-20T21:55:00.404Z,15.27
2023-04-20T21:58:02.129Z,17.17
2023-04-20T22:01:04.049Z,21.67
2023-04-20T22:04:06.105Z,21.33
2023-04-20T22:07:08.026Z,15.17
2023-04-20T22:10:09.944Z,17.37
2023-04-20T22:13:13.192Z,16.67
2023-04-20T22:16:14.951Z,16.97
2023-04-20T22:19:17.503Z,19.07
2023-04-20T22:22:19.346Z,20.40
2023-04-20T22:25:21.220Z,17.40
2023-04-20T22:28:22.957Z,20.33
2023-04-20T22:31:24.700Z,22.00
2023-04-20T22:34:26.417Z,20.20
2023-04-20T22:37:28.233Z,24.00
2023-04-20T22:40:30.047Z,20.90
2023-04-20T22:43:31.732Z,19.57
2023-04-20T22:46:33.468Z,25.03
2023-04-20T22:49:35.758Z,24.07
2023-04-20T22:52:38.560Z,21.03
2023-04-20T22:55:40.986Z,24.00
2023-04-20T22:58:42.610Z,23.20
2023-04-20T23:01:44.347Z,22.70
2023-04-20T23:04:46.522Z,19.77
2023-04-20T23:07:48.210Z,22.67
2023-04-20T23:10:50.784Z,19.83
2023-04-20T23:13:53.218Z,22.23
2023-04-20T23:16:55.217Z,23.73
2023-04-20T23:19:56.906Z,23.60
2023-04-20T23:22:58.554Z,24.97
2023-04-20T23:26:00.200Z,22.77
2023-04-20T23:29:01.870Z,25.80
2023-04-20T23:32:03.883Z,22.70
2023-04-20T23:35:06.272Z,26.47
2023-04-20T23:38:08.108Z,27.23
2023-04-20T23:41:14.850Z,26.57
2023-04-20T23:44:16.585Z,26.43
2023-04-20T23:47:18.267Z,24.17
2023-04-20T23:50:20.175Z,27.33
2023-04-20T23:53:22.041Z,25.93
2023-04-20T23:56:23.692Z,22.57
2023-04-20T23:59:25.352Z,25.57
